createdAt,value
2022-09-09T00:02:14.302Z,99657.78
2022-09-09T00:09:11.181Z,99865.81
2022-09-09T00:16:05.483Z,99839.66
2022-09-09T00:23:00.387Z,99743.78
2022-09-09T00:29:57.404Z,99940.63
2022-09-09T00:36:45.065Z,99800.16
2022-09-09T00:43:34.612Z,99895.63
2022-09-09T00:50:50.858Z,99607.94
2022-09-09T00:57:38.791Z,99975.97
2022-09-09T01:04:55.797Z,99982.34
2022-09-09T01:12:05.868Z,99240.63
2022-09-09T01:18:59.693Z,99957.50
2022-09-09T01:26:44.827Z,99951.63
2022-09-09T01:33:42.873Z,99562.00
2022-09-09T01:40:32.885Z,99236.22
2022-09-09T01:47:23.960Z,99549.19
2022-09-09T01:54:40.606Z,99905.63
2022-09-09T02:01:48.466Z,99775.59
2022-09-09T02:08:50.300Z,99984.66
2022-09-09T02:15:43.256Z,99602.59
2022-09-09T02:22:33.376Z,99377.81
2022-09-09T02:29:29.079Z,99651.19
2022-09-09T02:36:19.271Z,99646.56
2022-09-09T02:43:05.779Z,99718.78
2022-09-09T03:03:50.184Z,99621.56
2022-09-09T03:10:44.547Z,99238.53
2022-09-09T03:17:40.086Z,99382.34
2022-09-09T03:24:29.415Z,99243.09
2022-09-09T03:31:16.834Z,99535.66
2022-09-09T03:38:03.055Z,99631.63
2022-09-09T03:44:55.757Z,99596.28
2022-09-09T03:51:44.831Z,99867.56
2022-09-09T03:58:33.839Z,99639.22
2022-09-09T04:05:28.541Z,99748.78
2022-09-09T04:12:14.905Z,99310.34
2022-09-09T04:19:02.635Z,99559.66
2022-09-09T04:25:54.528Z,99959.59
2022-09-09T04:32:41.436Z,99725.56
2022-09-09T04:39:27.719Z,99437.88
2022-09-09T04:46:18.446Z,99969.41
2022-09-09T04:53:07.389Z,99503.25
2022-09-09T04:59:55.791Z,99713.78
2022-09-09T05:06:44.534Z,99607.13
2022-09-09T05:13:33.112Z,99875.72
2022-09-09T05:20:19.994Z,100034.75
2022-09-09T05:27:13.533Z,99386.44
2022-09-09T05:34:01.108Z,100031.44
2022-09-09T05:40:53.454Z,99908.31
2022-09-09T05:47:45.108Z,99647.38
2022-09-09T05:54:34.280Z,99955.28
2022-09-09T06:01:24.058Z,99685.38
2022-09-09T06:08:14.600Z,99418.72
2022-09-09T06:15:01.436Z,99364.94
2022-09-09T06:21:51.753Z,99619.94
2022-09-09T06:28:44.025Z,99254.97
2022-09-09T06:35:30.862Z,99718.88
2022-09-09T06:42:17.430Z,99932.31
2022-09-09T06:49:09.665Z,99947.69
2022-09-09T06:55:55.930Z,99868.25
2022-09-09T07:02:45.802Z,100056.50
2022-09-09T07:09:38.134Z,99655.50
2022-09-09T07:16:26.917Z,99712.31
2022-09-09T07:23:13.216Z,100043.47
2022-09-09T07:30:06.521Z,99948.31
2022-09-09T07:36:53.180Z,100072.16
2022-09-09T07:43:42.037Z,99870.31
2022-09-09T07:50:31.789Z,99860.34
2022-09-09T07:57:19.542Z,99972.50
2022-09-09T08:04:10.097Z,100021.47
2022-09-09T08:11:05.300Z,100088.13
2022-09-09T08:17:51.466Z,100082.84
2022-09-09T08:24:37.735Z,100086.47
2022-09-09T08:31:29.223Z,99374.69
2022-09-09T08:38:16.513Z,99832.84
2022-09-09T08:45:29.416Z,99893.16
2022-09-09T08:52:28.091Z,99995.34
2022-09-09T08:59:24.629Z,99852.34
2022-09-09T09:06:35.828Z,99809.41
2022-09-09T09:13:33.391Z,99814.66
2022-09-09T09:20:25.272Z,99782.25
2022-09-09T09:27:19.845Z,99813.66
2022-09-09T09:34:14.518Z,99781.56
2022-09-09T09:41:03.572Z,99955.06
2022-09-09T09:47:50.196Z,99838.66
2022-09-09T09:54:47.080Z,99738.44
2022-09-09T10:01:34.710Z,100072.28
2022-09-09T10:08:27.927Z,100001.88
2022-09-09T10:15:39.735Z,99397.13
2022-09-09T10:22:32.211Z,99741.84
2022-09-09T10:29:45.207Z,100054.47
2022-09-09T10:36:34.007Z,99610.16
2022-09-09T10:43:41.913Z,99821.31
2022-09-09T10:51:01.296Z,99387.09
2022-09-09T10:57:56.886Z,99784.22
2022-09-09T11:04:48.802Z,99350.38
2022-09-09T11:11:41.357Z,99695.78
2022-09-09T11:18:36.988Z,99283.81
2022-09-09T11:25:27.779Z,99640.59
2022-09-09T11:32:42.789Z,99647.53
2022-09-09T11:40:24.605Z,99893.69
2022-09-09T11:47:26.032Z,99802.00
2022-09-09T11:54:34.547Z,100032.09
2022-09-09T12:01:53.433Z,100002.03
2022-09-09T12:08:40.908Z,99815.22
2022-09-09T12:15:32.899Z,99944.97
2022-09-09T12:22:37.817Z,99666.97
2022-09-09T12:29:34.369Z,99691.06
2022-09-09T12:36:25.362Z,99906.66
2022-09-09T12:43:28.192Z,99893.69
2022-09-09T12:50:23.674Z,99662.16
2022-09-09T12:57:16.062Z,99602.75
2022-09-09T13:04:08.771Z,99432.09
2022-09-09T13:11:11.029Z,99680.28
2022-09-09T13:18:01.992Z,99698.97
2022-09-09T13:24:50.938Z,100040.59
2022-09-09T13:31:42.585Z,99775.38
2022-09-09T13:38:29.324Z,100027.03
2022-09-09T13:45:27.903Z,99758.50
2022-09-09T13:52:18.178Z,99857.03
2022-09-09T13:59:04.394Z,99931.59
2022-09-09T14:05:53.657Z,99949.25
2022-09-09T14:12:40.691Z,99838.41
2022-09-09T14:19:27.467Z,99701.66
2022-09-09T14:26:16.967Z,99651.19
2022-09-09T14:33:03.789Z,99464.00
2022-09-09T14:39:59.360Z,100038.53
2022-09-09T14:46:54.485Z,99801.69
2022-09-09T14:54:05.772Z,99287.94
2022-09-09T15:00:56.855Z,99345.41
2022-09-09T15:08:14.153Z,99226.53
2022-09-09T15:15:38.547Z,99311.00
2022-09-09T15:22:51.993Z,99595.94
2022-09-09T15:29:47.054Z,100016.44
2022-09-09T15:37:05.877Z,100022.31
2022-09-09T15:44:05.129Z,99362.16
2022-09-09T15:51:38.118Z,99290.41
2022-09-09T15:59:07.896Z,99739.19
2022-09-09T16:21:12.312Z,100044.53
2022-09-09T16:27:57.754Z,100008.00
2022-09-09T16:34:43.948Z,100043.31
2022-09-09T16:41:34.016Z,100049.13
2022-09-09T16:48:19.369Z,100064.13
2022-09-09T16:55:04.942Z,100054.75
2022-09-09T17:01:55.567Z,100033.94
2022-09-09T17:08:42.391Z,100039.84
2022-09-09T17:15:28.381Z,100054.22
2022-09-09T17:22:17.687Z,100053.06
2022-09-09T17:29:05.155Z,99972.75
2022-09-09T17:35:51.252Z,100082.28
2022-09-09T17:42:39.228Z,100088.25
2022-09-09T17:49:24.750Z,100096.59
2022-09-09T17:56:13.437Z,100078.94
2022-09-09T18:03:01.606Z,100086.66
2022-09-09T18:09:47.092Z,100104.97
2022-09-09T18:16:36.410Z,100110.84
2022-09-09T18:23:24.547Z,100137.59
2022-09-09T18:30:14.397Z,100132.56
2022-09-09T18:37:00.089Z,100169.75
2022-09-09T18:43:48.938Z,100127.19
2022-09-09T18:50:34.417Z,100183.41
2022-09-09T18:57:20.414Z,100181.13
2022-09-09T19:04:11.566Z,100168.84
2022-09-09T19:10:57.233Z,100182.00
2022-09-09T19:17:42.628Z,100203.00
2022-09-09T19:24:33.636Z,100218.06
2022-09-09T19:31:21.447Z,100243.25
2022-09-09T19:38:07.611Z,100141.84
2022-09-09T19:44:56.846Z,100225.47
2022-09-09T19:51:43.350Z,100202.13
2022-09-09T19:58:28.561Z,100194.28
2022-09-09T20:05:16.739Z,100199.72
2022-09-09T20:12:02.873Z,100204.13
2022-09-09T20:18:52.503Z,100175.25
2022-09-09T20:25:42.008Z,100198.19
2022-09-09T20:32:27.900Z,100199.25
2022-09-09T20:39:16.778Z,100171.47
2022-09-09T20:46:07.998Z,100177.91
2022-09-09T20:52:53.556Z,100196.88
2022-09-09T20:59:39.754Z,100194.78
2022-09-09T21:06:27.752Z,100178.97
2022-09-09T21:13:13.132Z,100182.09
2022-09-09T21:19:58.590Z,100180.38
2022-09-09T21:26:46.778Z,100174.75
2022-09-09T21:33:32.818Z,100165.25
2022-09-09T21:40:18.570Z,100167.59
2022-09-09T21:47:07.189Z,100177.19
2022-09-09T21:53:52.602Z,100185.03
2022-09-09T22:00:38.302Z,100193.34
2022-09-09T22:07:26.376Z,100174.19
2022-09-09T22:14:11.976Z,100161.16
2022-09-09T22:20:57.434Z,100179.94
2022-09-09T22:27:45.436Z,100132.34
2022-09-09T22:34:32.048Z,100153.47
2022-09-09T22:41:18.834Z,100125.66
2022-09-09T22:48:07.608Z,100173.16
2022-09-09T22:54:53.404Z,100178.38
2022-09-09T23:01:39.555Z,100176.66
2022-09-09T23:08:32.374Z,100148.78
2022-09-09T23:15:17.948Z,100202.31
2022-09-09T23:22:03.312Z,100204.03
2022-09-09T23:28:55.368Z,100199.78
2022-09-09T23:35:40.824Z,100199.50
2022-09-09T23:42:26.928Z,100212.47
2022-09-09T23:49:14.971Z,100202.06
2022-09-09T23:56:02.006Z,100200.47
